Time;durP1;ratioP1;P1;durP2;ratioP2;P2;SDS_P1;SDS_P2;PMS_P1;PMS_P2;Temp;Humidity;BMP_temperature;BMP_pressure;BME280_temperature;BME280_humidity;BME280_pressure;Samples;Min_cycle;Max_cycle;Signal;HPM_P1;HPM_P2
2023/08/24 00:01:12;;;;;;;8.90;4.15;;;16.00;99.90;;;;;;4862653;29;20081;-91
2023/08/24 00:03:40;;;;;;;5.20;3.47;;;16.00;99.90;;;;;;4863035;29;20400;-90
2023/08/24 00:06:10;;;;;;;7.65;4.22;;;16.00;99.90;;;;;;4862428;29;20053;-92
2023/08/24 00:08:37;;;;;;;8.48;3.90;;;15.90;99.90;;;;;;4848199;29;20057;-91
2023/08/24 00:11:05;;;;;;;15.35;4.22;;;15.90;99.90;;;;;;4862055;29;20046;-90
2023/08/24 00:13:32;;;;;;;6.25;3.63;;;15.90;99.90;;;;;;4862795;29;20053;-91
2023/08/24 00:15:59;;;;;;;6.50;3.65;;;15.80;99.90;;;;;;4862134;29;20046;-91
2023/08/24 00:18:26;;;;;;;8.05;4.13;;;15.80;99.90;;;;;;4847522;29;20049;-92
2023/08/24 00:20:53;;;;;;;8.98;4.00;;;15.90;99.90;;;;;;4847698;29;20407;-92
2023/08/24 00:23:19;;;;;;;7.93;3.95;;;15.70;99.90;;;;;;4847947;29;20045;-91
2023/08/24 00:25:46;;;;;;;7.30;3.42;;;15.70;99.90;;;;;;4846955;29;20050;-91
2023/08/24 00:28:13;;;;;;;8.98;3.97;;;15.70;99.90;;;;;;4846751;29;20085;-91
2023/08/24 00:30:40;;;;;;;7.45;3.85;;;15.50;99.90;;;;;;4862620;29;20052;-92
2023/08/24 00:33:07;;;;;;;7.07;4.20;;;15.60;99.90;;;;;;4847369;29;20121;-92
2023/08/24 00:35:34;;;;;;;6.70;4.00;;;15.60;99.90;;;;;;4832349;29;20547;-92
2023/08/24 00:38:01;;;;;;;9.23;4.40;;;15.60;99.90;;;;;;4862366;29;20046;-92
2023/08/24 00:40:28;;;;;;;6.82;4.05;;;15.60;99.90;;;;;;4862286;29;20046;-91
2023/08/24 00:42:58;;;;;;;9.90;4.03;;;15.60;99.90;;;;;;4847479;29;20437;-91
2023/08/24 00:45:31;;;;;;;6.35;3.72;;;15.50;99.90;;;;;;4861868;29;20058;-91
2023/08/24 00:48:01;;;;;;;9.43;4.70;;;15.50;99.90;;;;;;4862060;29;20042;-92
2023/08/24 00:50:33;;;;;;;6.30;3.78;;;15.50;99.90;;;;;;4861874;29;20046;-91
2023/08/24 00:53:00;;;;;;;7.72;3.72;;;15.50;99.90;;;;;;4844831;29;20085;-91
2023/08/24 00:55:27;;;;;;;8.43;3.85;;;15.50;99.90;;;;;;4877231;29;20081;-91
2023/08/24 00:57:56;;;;;;;7.75;4.43;;;15.50;99.90;;;;;;4847251;29;20468;-91
2023/08/24 01:00:26;;;;;;;6.85;3.70;;;15.50;99.90;;;;;;4847284;29;20046;-91
2023/08/24 01:02:53;;;;;;;9.30;3.80;;;15.50;99.90;;;;;;4861586;29;20081;-91
2023/08/24 01:05:22;;;;;;;8.93;4.07;;;15.50;99.90;;;;;;4861476;29;20081;-91
2023/08/24 01:07:49;;;;;;;6.88;3.55;;;15.50;99.90;;;;;;4846442;29;20046;-91
2023/08/24 01:10:16;;;;;;;7.13;3.58;;;15.50;99.90;;;;;;4861361;29;20464;-91
2023/08/24 01:13:12;;;;;;;5.88;3.55;;;15.50;99.90;;;;;;4846649;29;20041;-90
2023/08/24 01:15:39;;;;;;;;;;;15.40;99.90;;;;;;4862038;29;20046;-91
2023/08/24 01:18:14;;;;;;;9.25;3.45;;;15.50;99.90;;;;;;4861687;29;19957;-91
2023/08/24 01:20:43;;;;;;;7.50;3.40;;;15.50;99.90;;;;;;4861554;29;20069;-91
2023/08/24 01:23:24;;;;;;;7.28;3.17;;;15.50;99.90;;;;;;4845746;29;20049;-91
2023/08/24 01:25:59;;;;;;;7.38;3.30;;;15.50;99.90;;;;;;4876819;29;20041;-91
2023/08/24 01:28:26;;;;;;;8.55;3.60;;;15.50;99.90;;;;;;4861084;29;20136;-92
2023/08/24 01:30:53;;;;;;;6.15;3.40;;;15.60;99.90;;;;;;4861896;29;20432;-92
2023/08/24 01:33:21;;;;;;;7.20;3.45;;;15.60;99.90;;;;;;4860910;29;20038;-91
2023/08/24 01:35:48;;;;;;;4.53;2.78;;;15.60;99.90;;;;;;4861190;29;20073;-91
2023/08/24 01:38:15;;;;;;;5.85;3.20;;;15.60;99.90;;;;;;4861549;29;20049;-92
2023/08/24 01:40:49;;;;;;;7.15;3.47;;;15.40;99.90;;;;;;4861602;29;20052;-92
2023/08/24 01:43:23;;;;;;;10.82;4.00;;;15.60;99.90;;;;;;4861144;29;20403;-91
2023/08/24 01:45:51;;;;;;;11.32;4.07;;;15.60;99.90;;;;;;4861466;29;20106;-92
2023/08/24 01:48:22;;;;;;;8.02;4.22;;;15.70;99.90;;;;;;4860980;29;20045;-91
2023/08/24 01:50:52;;;;;;;6.57;3.50;;;15.60;99.90;;;;;;4860728;29;20054;-92
2023/08/24 01:53:19;;;;;;;8.30;3.67;;;15.60;99.90;;;;;;4845512;29;20373;-92
2023/08/24 01:55:46;;;;;;;6.45;3.92;;;15.60;99.90;;;;;;4861011;29;20883;-92
2023/08/24 01:58:13;;;;;;;6.82;3.88;;;15.70;99.90;;;;;;4861664;29;20081;-91
2023/08/24 02:00:40;;;;;;;7.65;3.92;;;15.70;99.90;;;;;;4845820;29;20049;-91
2023/08/24 02:03:07;;;;;;;9.48;3.67;;;15.70;99.90;;;;;;4860782;29;20106;-92
2023/08/24 02:05:34;;;;;;;9.07;3.70;;;15.70;99.90;;;;;;4860641;29;20050;-91
2023/08/24 02:08:00;;;;;;;7.38;3.60;;;15.70;99.90;;;;;;4845354;29;20437;-91
2023/08/24 02:10:27;;;;;;;6.53;3.50;;;15.70;99.90;;;;;;4845154;29;20074;-91
2023/08/24 02:12:54;;;;;;;11.02;4.57;;;15.70;99.90;;;;;;4860890;29;20834;-91
2023/08/24 02:15:22;;;;;;;7.15;3.88;;;15.70;99.90;;;;;;4874444;29;20506;-91
2023/08/24 02:17:51;;;;;;;8.85;3.50;;;15.70;99.90;;;;;;4845782;29;20046;-92
2023/08/24 02:20:18;;;;;;;7.38;3.97;;;15.80;99.90;;;;;;4860649;29;20038;-91
2023/08/24 02:22:48;;;;;;;6.30;3.38;;;15.70;99.90;;;;;;4860416;29;20058;-91
2023/08/24 02:25:15;;;;;;;6.80;3.72;;;15.70;99.90;;;;;;4860571;29;20048;-91
2023/08/24 02:27:42;;;;;;;11.23;4.18;;;15.80;99.90;;;;;;4845186;29;20133;-91
2023/08/24 02:30:12;;;;;;;6.10;4.03;;;15.80;99.90;;;;;;4861237;29;20053;-92
2023/08/24 02:32:39;;;;;;;6.72;3.80;;;15.80;99.90;;;;;;4860257;29;20626;-91
2023/08/24 02:35:07;;;;;;;9.10;3.75;;;15.80;99.90;;;;;;4830170;29;20050;-91
2023/08/24 02:37:36;;;;;;;8.40;4.10;;;15.80;99.90;;;;;;4860114;29;20385;-91
2023/08/24 02:40:09;;;;;;;9.13;4.05;;;15.80;99.90;;;;;;4845291;29;20054;-91
2023/08/24 02:42:35;;;;;;;8.18;4.53;;;15.80;99.90;;;;;;4860022;29;20064;-91
2023/08/24 02:45:04;;;;;;;10.52;3.97;;;15.80;99.90;;;;;;4860258;29;20050;-91
2023/08/24 02:47:30;;;;;;;7.45;4.07;;;15.70;99.90;;;;;;4860187;29;20045;-91
2023/08/24 02:50:00;;;;;;;7.63;3.67;;;15.80;99.90;;;;;;4846095;29;20052;-91
2023/08/24 02:52:27;;;;;;;6.07;3.70;;;15.70;99.90;;;;;;4860032;29;20042;-91
2023/08/24 02:54:54;;;;;;;7.95;3.70;;;15.80;99.90;;;;;;4860029;29;20054;-91
2023/08/24 02:57:20;;;;;;;8.35;4.10;;;15.60;99.90;;;;;;4844996;29;20488;-89
2023/08/24 02:59:47;;;;;;;7.82;3.75;;;15.70;99.90;;;;;;4859713;29;20137;-92
2023/08/24 03:02:14;;;;;;;8.13;4.22;;;15.70;99.90;;;;;;4860231;29;20495;-91
2023/08/24 03:04:41;;;;;;;10.98;4.10;;;15.70;99.90;;;;;;4844651;29;20096;-92
2023/08/24 03:07:10;;;;;;;8.43;5.10;;;15.80;99.90;;;;;;4859652;29;20078;-91
2023/08/24 03:09:37;;;;;;;9.10;4.00;;;15.80;99.90;;;;;;4859867;29;20049;-90
2023/08/24 03:12:04;;;;;;;8.52;4.47;;;15.80;99.90;;;;;;4844604;29;20045;-91
2023/08/24 03:14:31;;;;;;;6.75;4.25;;;15.80;99.90;;;;;;4859485;29;20053;-91
2023/08/24 03:17:00;;;;;;;8.20;4.57;;;15.90;99.90;;;;;;4844695;29;20492;-91
2023/08/24 03:19:27;;;;;;;9.15;5.22;;;15.90;99.90;;;;;;4859584;29;20053;-91
2023/08/24 03:21:53;;;;;;;8.35;4.93;;;15.90;99.90;;;;;;4844608;29;20049;-91
2023/08/24 03:24:20;;;;;;;10.82;5.03;;;15.90;99.90;;;;;;4860535;29;20052;-91
2023/08/24 03:26:47;;;;;;;9.00;4.82;;;15.90;99.90;;;;;;4847049;29;20054;-91
2023/08/24 03:29:14;;;;;;;9.13;4.90;;;15.90;99.90;;;;;;4848646;29;20046;-90
2023/08/24 03:31:40;;;;;;;8.25;5.28;;;15.90;99.90;;;;;;4862962;29;20052;-91
2023/08/24 03:34:07;;;;;;;11.15;4.65;;;15.90;99.90;;;;;;4863282;29;20394;-91
2023/08/24 03:36:34;;;;;;;7.38;4.53;;;15.90;99.90;;;;;;4862552;29;20140;-91
2023/08/24 03:39:01;;;;;;;6.72;4.60;;;15.90;99.90;;;;;;4863213;29;20046;-91
2023/08/24 03:41:28;;;;;;;8.02;5.20;;;15.90;99.90;;;;;;4848568;29;20046;-92
2023/08/24 03:43:55;;;;;;;9.05;4.50;;;15.90;99.90;;;;;;4848121;29;20057;-91
2023/08/24 03:46:22;;;;;;;8.35;4.65;;;15.90;99.90;;;;;;4862592;29;20126;-91
2023/08/24 03:48:49;;;;;;;10.98;4.97;;;15.80;99.90;;;;;;4862280;29;20058;-91
2023/08/24 03:51:15;;;;;;;9.02;4.47;;;15.80;99.90;;;;;;4862581;29;20042;-91
2023/08/24 03:53:42;;;;;;;8.30;4.80;;;15.80;99.90;;;;;;4847571;29;20148;-90
2023/08/24 03:56:09;;;;;;;9.38;4.80;;;15.80;99.90;;;;;;4862899;29;20053;-91
2023/08/24 03:58:36;;;;;;;9.07;4.90;;;15.90;99.90;;;;;;4847838;29;20136;-91
2023/08/24 04:01:03;;;;;;;8.82;5.07;;;15.70;99.90;;;;;;4862709;29;20057;-91
2023/08/24 04:03:30;;;;;;;9.57;5.25;;;15.80;99.90;;;;;;4862484;29;20415;-91
2023/08/24 04:05:56;;;;;;;11.20;5.40;;;15.80;99.90;;;;;;4847556;29;20046;-91
2023/08/24 04:08:23;;;;;;;8.82;4.88;;;15.80;99.90;;;;;;4861965;29;20053;-90
2023/08/24 04:10:50;;;;;;;10.45;5.28;;;15.80;99.90;;;;;;4861989;29;20050;-91
2023/08/24 04:13:17;;;;;;;13.18;5.60;;;15.80;99.90;;;;;;4847287;29;20045;-90
2023/08/24 04:15:43;;;;;;;8.15;5.80;;;15.80;99.90;;;;;;4862006;29;20510;-90
2023/08/24 04:18:11;;;;;;;9.23;5.07;;;15.80;99.90;;;;;;4847440;29;20133;-90
2023/08/24 04:20:37;;;;;;;12.65;5.78;;;15.70;99.90;;;;;;4862049;29;20046;-91
2023/08/24 04:23:04;;;;;;;8.50;5.50;;;15.80;99.90;;;;;;4847506;29;20069;-91
2023/08/24 04:25:31;;;;;;;10.50;5.70;;;15.80;99.90;;;;;;4862180;29;20078;-91
2023/08/24 04:27:58;;;;;;;9.80;5.18;;;15.80;99.90;;;;;;4861550;29;20045;-90
2023/08/24 04:30:25;;;;;;;8.77;4.80;;;15.90;99.90;;;;;;4861577;29;20889;-90
2023/08/24 04:32:52;;;;;;;10.40;5.65;;;15.90;99.90;;;;;;4861919;29;20045;-91
2023/08/24 04:35:21;;;;;;;9.02;5.10;;;15.80;99.90;;;;;;4861751;29;20413;-90
2023/08/24 04:37:47;;;;;;;9.35;5.55;;;16.00;99.90;;;;;;4861129;29;20052;-91
2023/08/24 04:40:14;;;;;;;12.90;4.95;;;15.80;99.90;;;;;;4861810;29;20162;-90
2023/08/24 04:42:41;;;;;;;9.98;5.28;;;15.80;99.90;;;;;;4862105;29;20500;-91
2023/08/24 04:45:09;;;;;;;10.05;5.10;;;15.90;99.90;;;;;;4862153;29;20128;-90
2023/08/24 04:47:36;;;;;;;10.55;5.15;;;15.70;99.90;;;;;;4861866;29;20041;-91
2023/08/24 04:50:03;;;;;;;8.38;5.28;;;15.90;99.90;;;;;;4861344;29;20514;-90
2023/08/24 04:52:30;;;;;;;10.32;5.45;;;15.90;99.90;;;;;;4861427;29;20133;-90
2023/08/24 04:54:57;;;;;;;10.13;5.57;;;15.90;99.90;;;;;;4861195;29;20511;-90
2023/08/24 04:57:24;;;;;;;12.95;6.10;;;15.90;99.90;;;;;;4861741;29;20129;-89
2023/08/24 04:59:51;;;;;;;12.60;5.75;;;15.90;99.90;;;;;;4861244;29;20136;-90
2023/08/24 05:02:20;;;;;;;11.75;6.03;;;15.90;99.90;;;;;;4861582;29;20046;-90
2023/08/24 05:04:48;;;;;;;13.60;6.25;;;15.90;99.90;;;;;;4860877;29;20115;-90
2023/08/24 05:07:15;;;;;;;11.88;5.57;;;15.90;99.90;;;;;;4861097;29;20144;-90
2023/08/24 05:09:42;;;;;;;9.60;5.82;;;15.80;99.90;;;;;;4861341;29;20535;-90
2023/08/24 05:12:08;;;;;;;12.18;5.55;;;15.80;99.90;;;;;;4861045;29;20038;-91
2023/08/24 05:14:35;;;;;;;9.90;5.60;;;15.80;99.90;;;;;;4845901;29;20042;-90
2023/08/24 05:17:02;;;;;;;11.70;6.07;;;15.80;99.90;;;;;;4845833;29;20054;-91
2023/08/24 05:19:29;;;;;;;11.38;6.22;;;15.80;99.90;;;;;;4861117;29;20052;-91
2023/08/24 05:21:59;;;;;;;9.40;5.75;;;15.90;99.90;;;;;;4861455;29;20129;-91
2023/08/24 05:24:26;;;;;;;9.80;5.85;;;15.90;99.90;;;;;;4845937;29;20133;-91
2023/08/24 05:26:52;;;;;;;11.30;5.95;;;15.90;99.90;;;;;;4860720;29;20187;-91
2023/08/24 05:29:30;;;;;;;13.10;5.72;;;15.90;99.90;;;;;;4861353;29;20508;-91
2023/08/24 05:31:57;;;;;;;12.27;5.32;;;15.90;99.90;;;;;;4860794;29;20042;-91
2023/08/24 05:34:24;;;;;;;12.35;6.32;;;15.90;99.90;;;;;;4861619;29;20129;-91
2023/08/24 05:36:51;;;;;;;13.77;6.00;;;16.00;99.90;;;;;;4861219;29;20050;-91
2023/08/24 05:39:18;;;;;;;14.20;5.75;;;16.00;99.90;;;;;;4845891;29;20058;-91
2023/08/24 05:41:48;;;;;;;14.23;5.30;;;16.10;99.90;;;;;;4846062;29;20049;-91
2023/08/24 05:44:16;;;;;;;9.77;5.47;;;16.10;99.90;;;;;;4860683;29;20522;-90
2023/08/24 05:46:45;;;;;;;9.80;5.55;;;16.20;99.90;;;;;;4860994;29;20107;-90
2023/08/24 05:49:13;;;;;;;10.77;5.53;;;16.20;99.90;;;;;;4859952;29;20693;-91
2023/08/24 05:51:43;;;;;;;9.18;5.70;;;16.30;99.90;;;;;;4861383;29;20042;-91
2023/08/24 05:54:10;;;;;;;7.97;5.13;;;16.40;99.90;;;;;;4860454;29;20054;-91
2023/08/24 05:56:39;;;;;;;12.27;5.40;;;16.40;99.90;;;;;;4845597;29;20058;-91
2023/08/24 05:59:06;;;;;;;9.25;5.13;;;16.50;99.90;;;;;;4845609;29;20050;-91
2023/08/24 06:01:38;;;;;;;9.30;4.70;;;16.50;99.90;;;;;;4860916;29;20045;-91
2023/08/24 06:04:09;;;;;;;10.23;4.88;;;16.50;99.90;;;;;;4845439;29;20057;-91
2023/08/24 06:06:37;;;;;;;8.20;4.60;;;16.60;99.90;;;;;;4845533;29;20045;-91
2023/08/24 06:09:09;;;;;;;10.52;4.70;;;16.60;99.90;;;;;;4860457;29;20411;-91
2023/08/24 06:11:40;;;;;;;8.07;4.88;;;16.50;99.90;;;;;;4846967;29;20034;-91
2023/08/24 06:14:07;;;;;;;11.50;4.50;;;16.60;99.90;;;;;;4860327;29;20097;-91
2023/08/24 06:16:34;;;;;;;10.18;4.68;;;16.60;99.90;;;;;;4859644;29;20061;-90
2023/08/24 06:19:01;;;;;;;8.30;4.63;;;16.60;99.90;;;;;;4860345;29;20121;-91
2023/08/24 06:21:38;;;;;;;12.88;5.40;;;16.60;99.90;;;;;;4861171;29;20492;-91
2023/08/24 06:24:06;;;;;;;9.98;4.75;;;16.60;99.90;;;;;;4845077;29;20046;-91
2023/08/24 06:26:33;;;;;;;8.70;4.80;;;16.60;99.90;;;;;;4845613;29;20128;-91
2023/08/24 06:29:05;;;;;;;10.82;5.35;;;16.60;99.90;;;;;;4860714;29;20054;-91
2023/08/24 06:31:34;;;;;;;11.38;5.00;;;16.70;99.90;;;;;;4845921;29;20496;-93
2023/08/24 06:34:02;;;;;;;8.98;4.43;;;16.70;99.90;;;;;;4860413;29;20053;-90
2023/08/24 06:36:29;;;;;;;10.13;4.75;;;16.80;99.90;;;;;;4859948;29;20053;-91
2023/08/24 06:38:57;;;;;;;8.07;4.60;;;16.90;99.90;;;;;;4859801;29;20038;-91
2023/08/24 06:41:24;;;;;;;8.45;4.88;;;16.90;99.90;;;;;;4859991;29;20057;-91
2023/08/24 06:44:00;;;;;;;7.13;4.53;;;17.00;99.90;;;;;;4860114;29;20081;-90
2023/08/24 06:46:37;;;;;;;9.73;4.97;;;17.20;99.90;;;;;;4860148;29;20052;-91
2023/08/24 06:49:04;;;;;;;8.65;5.07;;;17.10;99.90;;;;;;4860161;29;20080;-92
2023/08/24 06:51:41;;;;;;;12.18;4.65;;;17.20;99.90;;;;;;4860761;29;20061;-91
2023/08/24 06:54:08;;;;;;;10.57;5.10;;;17.20;99.90;;;;;;4859155;29;20045;-90
2023/08/24 06:56:43;;;;;;;10.40;5.32;;;17.40;99.90;;;;;;4863676;29;20045;-90
2023/08/24 06:59:13;;;;;;;10.52;4.72;;;17.50;99.90;;;;;;4845845;29;20388;-91
2023/08/24 07:01:47;;;;;;;7.80;4.60;;;17.60;99.90;;;;;;4859655;29;20053;-91
2023/08/24 07:04:17;;;;;;;9.43;4.72;;;17.60;99.90;;;;;;4860585;29;20054;-91
2023/08/24 07:06:44;;;;;;;8.68;4.88;;;17.70;99.90;;;;;;4860418;29;20110;-92
2023/08/24 07:09:11;;;;;;;8.82;4.65;;;17.80;99.90;;;;;;4859890;29;20198;-92
2023/08/24 07:11:44;;;;;;;8.70;4.93;;;17.90;99.90;;;;;;4859528;29;20384;-92
2023/08/24 07:14:14;;;;;;;8.95;5.38;;;18.00;99.90;;;;;;4845128;29;20110;-92
2023/08/24 07:16:47;;;;;;;10.60;4.90;;;18.20;99.90;;;;;;4845005;29;20042;-92
2023/08/24 07:19:14;;;;;;;10.48;4.95;;;18.30;99.90;;;;;;4860311;29;20136;-93
2023/08/24 07:21:45;;;;;;;8.85;4.78;;;18.40;99.90;;;;;;4845057;29;20081;-92
2023/08/24 07:24:26;;;;;;;13.75;5.18;;;18.40;99.90;;;;;;4846163;29;20050;-91
2023/08/24 07:26:58;;;;;;;8.05;4.90;;;18.50;99.90;;;;;;4860730;29;20114;-92
2023/08/24 07:29:25;;;;;;;8.40;5.00;;;18.70;99.90;;;;;;4874841;29;20042;-91
2023/08/24 07:31:54;;;;;;;10.93;5.13;;;18.80;99.90;;;;;;4844605;29;20049;-91
2023/08/24 07:34:24;;;;;;;8.82;5.10;;;18.80;99.90;;;;;;4859298;29;20416;-91
2023/08/24 07:36:51;;;;;;;9.93;5.30;;;18.90;99.90;;;;;;4859885;29;20072;-92
2023/08/24 07:39:18;;;;;;;10.32;5.07;;;19.00;99.90;;;;;;4859682;29;20543;-92
2023/08/24 07:41:48;;;;;;;8.20;4.90;;;19.10;99.90;;;;;;4844839;29;20111;-95
2023/08/24 07:44:15;;;;;;;12.75;5.40;;;19.20;99.90;;;;;;4858966;29;20076;-91
2023/08/24 07:46:41;;;;;;;10.68;4.95;;;19.30;99.90;;;;;;4859987;29;20388;-92
2023/08/24 07:49:08;;;;;;;8.70;5.68;;;19.40;99.90;;;;;;4859619;29;20103;-92
2023/08/24 07:51:36;;;;;;;9.13;5.07;;;19.50;99.90;;;;;;4859991;29;20057;-89
2023/08/24 07:54:10;;;;;;;8.05;5.20;;;19.70;99.90;;;;;;4828291;29;20049;-92
2023/08/24 07:56:37;;;;;;;9.57;5.75;;;19.80;99.90;;;;;;4836186;29;20057;-92
2023/08/24 07:59:31;;;;;;;9.68;5.65;;;19.90;99.90;;;;;;4859113;29;20038;-93
2023/08/24 08:01:57;;;;;;;22.25;6.13;;;19.90;99.90;;;;;;4855873;29;20038;-93
2023/08/24 08:04:24;;;;;;;11.55;5.38;;;20.10;99.90;;;;;;4844343;29;20114;-93
2023/08/24 08:06:55;;;;;;;8.00;5.30;;;20.30;99.90;;;;;;4830481;29;20046;-95
2023/08/24 08:09:56;;;;;;;8.48;5.20;;;20.40;99.90;;;;;;4833228;29;20049;-96
2023/08/24 08:13:25;;;;;;;7.40;4.45;;;20.50;99.90;;;;;;4851503;29;20440;-93
2023/08/24 08:16:07;;;;;;;8.13;4.85;;;20.70;99.90;;;;;;4832581;29;20061;-92
2023/08/24 08:26:31;;;;;;;8.63;4.40;;;21.10;99.90;;;;;;4804585;30;20051;-95
2023/08/24 08:29:07;;;;;;;13.35;4.18;;;21.00;99.90;;;;;;4774730;30;20059;-92
2023/08/24 08:31:55;;;;;;;5.75;3.72;;;21.50;99.90;;;;;;4806908;30;20116;-92
2023/08/24 08:35:17;;;;;;;8.18;4.50;;;21.50;99.90;;;;;;4847316;29;20042;-92
2023/08/24 08:57:31;;;;;;;7.53;3.90;;;22.10;99.90;;;;;;4754305;30;20145;-93
2023/08/24 09:06:44;;;;;;;10.90;4.50;;;22.30;99.90;;;;;;4773343;30;20142;-91
2023/08/24 09:09:17;;;;;;;;;;;22.40;99.90;;;;;;4758750;30;20063;-92
2023/08/24 09:11:47;;;;;;;5.63;3.67;;;22.60;99.90;;;;;;4790060;29;19924;-85
2023/08/24 09:14:14;;;;;;;9.98;4.40;;;22.80;99.90;;;;;;4845677;29;20513;-87
2023/08/24 09:16:41;;;;;;;8.68;4.65;;;22.90;99.90;;;;;;4827667;29;20489;-87
2023/08/24 09:19:11;;;;;;;10.32;4.90;;;23.00;99.90;;;;;;4858305;29;20039;-88
2023/08/24 09:22:13;;;;;;;7.72;5.00;;;23.00;99.90;;;;;;4860428;29;20526;-88
2023/08/24 09:25:09;;;;;;;8.75;4.88;;;23.00;99.90;;;;;;4841723;29;20054;-93
2023/08/24 09:27:38;;;;;;;11.10;5.25;;;23.10;99.90;;;;;;4859097;29;20045;-91
2023/08/24 09:30:37;;;;;;;9.57;5.57;;;23.20;99.90;;;;;;4827952;29;20046;-91
2023/08/24 09:34:09;;;;;;;10.00;5.53;;;23.20;99.90;;;;;;4847880;29;20051;-92
2023/08/24 09:37:22;;;;;;;12.77;5.97;;;23.10;99.90;;;;;;4772333;29;20156;-92
2023/08/24 09:40:22;;;;;;;9.75;5.47;;;23.00;99.90;;;;;;4844077;29;20092;-92
2023/08/24 09:43:42;;;;;;;7.80;5.38;;;23.10;99.90;;;;;;4829849;29;20053;-91
2023/08/24 09:46:34;;;;;;;8.95;5.20;;;23.10;99.90;;;;;;4843040;29;20082;-92
2023/08/24 09:49:21;;;;;;;8.52;5.43;;;22.90;99.90;;;;;;4844158;29;20050;-92
2023/08/24 09:52:12;;;;;;;;;;;;;;;;;;;;;
2023/08/24 09:58:34;;;;;;;8.52;5.45;;;23.20;99.90;;;;;;4851800;29;20061;-91
2023/08/24 10:01:10;;;;;;;10.88;5.53;;;23.40;99.90;;;;;;4818157;29;20057;-92
2023/08/24 10:04:13;;;;;;;14.15;5.30;;;23.30;99.90;;;;;;4842890;29;20046;-92
2023/08/24 10:06:49;;;;;;;9.63;5.25;;;23.40;99.90;;;;;;4841726;29;20079;-91
2023/08/24 10:13:19;;;;;;;8.55;4.80;;;23.30;99.90;;;;;;4823646;30;20138;-96
2023/08/24 10:16:09;;;;;;;9.43;5.22;;;23.40;99.90;;;;;;4821321;30;20054;-96
2023/08/24 10:18:51;;;;;;;6.70;4.20;;;23.30;99.90;;;;;;4789913;30;20051;-96
2023/08/24 10:21:19;;;;;;;7.05;4.40;;;23.40;99.90;;;;;;4819934;30;20043;-91
2023/08/24 10:23:46;;;;;;;7.90;4.55;;;23.40;99.90;;;;;;4845669;29;20059;-91
2023/08/24 10:26:14;;;;;;;7.07;5.05;;;23.40;99.90;;;;;;4827045;29;20039;-92
2023/08/24 10:28:41;;;;;;;8.85;4.60;;;23.30;99.90;;;;;;4826841;29;20403;-93
2023/08/24 10:31:08;;;;;;;9.70;4.75;;;23.30;99.90;;;;;;4827051;29;20134;-93
2023/08/24 10:33:36;;;;;;;9.75;4.82;;;23.30;99.90;;;;;;4811752;29;20046;-92
2023/08/24 10:36:06;;;;;;;9.70;5.10;;;23.30;99.90;;;;;;4826566;29;20776;-90
2023/08/24 10:38:41;;;;;;;9.65;5.28;;;23.30;99.90;;;;;;4841355;29;20051;-88
2023/08/24 10:41:12;;;;;;;9.38;5.00;;;23.30;99.90;;;;;;4841189;29;20126;-89
2023/08/24 10:43:40;;;;;;;11.60;4.85;;;23.30;99.90;;;;;;4826059;29;20107;-89
2023/08/24 10:46:14;;;;;;;7.50;4.82;;;23.30;99.90;;;;;;4840941;29;20570;-88
2023/08/24 10:48:41;;;;;;;14.75;5.47;;;23.30;99.90;;;;;;4841110;29;20042;-91
2023/08/24 10:51:18;;;;;;;9.00;4.88;;;23.30;99.90;;;;;;4842125;29;20053;-91
2023/08/24 10:54:03;;;;;;;10.68;5.18;;;23.30;99.90;;;;;;4843118;29;20103;-91
2023/08/24 10:56:38;;;;;;;15.68;5.30;;;23.30;99.90;;;;;;4831854;29;20061;-90
2023/08/24 10:59:38;;;;;;;8.38;5.03;;;23.20;99.90;;;;;;4863315;29;20060;-93
2023/08/24 11:02:17;;;;;;;7.72;5.07;;;23.20;99.90;;;;;;4863668;29;20046;-93
2023/08/24 11:05:10;;;;;;;9.25;4.78;;;23.20;99.90;;;;;;4864698;29;20044;-96
2023/08/24 11:07:55;;;;;;;8.43;4.85;;;23.20;99.90;;;;;;4846537;29;20038;-94
2023/08/24 11:13:30;;;;;;;9.15;5.13;;;23.20;99.90;;;;;;4851146;29;20453;-93
2023/08/24 11:15:58;;;;;;;8.50;5.10;;;23.20;99.90;;;;;;4844612;29;20049;-89
2023/08/24 11:18:27;;;;;;;9.77;5.32;;;23.30;99.90;;;;;;4828972;29;20056;-88
2023/08/24 11:21:00;;;;;;;12.43;5.00;;;23.40;99.90;;;;;;4844038;29;20038;-89
2023/08/24 11:23:27;;;;;;;11.10;5.43;;;23.50;99.90;;;;;;4844351;29;20041;-91
2023/08/24 11:25:59;;;;;;;7.47;4.55;;;23.50;99.90;;;;;;4828707;29;20772;-88
2023/08/24 11:28:30;;;;;;;11.90;5.40;;;23.60;99.90;;;;;;4845152;29;20129;-90
2023/08/24 11:30:58;;;;;;;8.35;4.95;;;23.60;99.90;;;;;;4829989;29;20058;-91
2023/08/24 11:33:33;;;;;;;9.25;5.50;;;23.80;99.90;;;;;;4844887;29;20491;-90
2023/08/24 11:36:02;;;;;;;14.30;5.07;;;23.90;99.90;;;;;;4829073;29;20042;-87
2023/08/24 11:38:40;;;;;;;9.05;5.00;;;24.00;99.90;;;;;;4843563;29;20073;-85
2023/08/24 11:41:17;;;;;;;12.02;5.38;;;24.20;99.90;;;;;;4843222;29;20906;-85
2023/08/24 11:43:45;;;;;;;8.25;5.65;;;24.30;99.90;;;;;;4842995;29;20503;-89
2023/08/24 11:46:13;;;;;;;9.80;5.53;;;24.40;99.90;;;;;;4844328;29;20046;-90
2023/08/24 11:48:40;;;;;;;9.85;5.70;;;24.40;99.90;;;;;;4817871;29;20081;-89
2023/08/24 11:51:12;;;;;;;10.25;5.18;;;24.50;99.90;;;;;;4848443;29;20046;-91
2023/08/24 11:53:43;;;;;;;10.05;5.00;;;24.50;99.90;;;;;;4848325;29;20048;-90
2023/08/24 11:56:12;;;;;;;7.57;4.88;;;24.50;99.90;;;;;;4848169;29;20406;-90
2023/08/24 11:58:46;;;;;;;8.55;4.80;;;24.60;99.90;;;;;;4848725;29;20088;-91
2023/08/24 12:01:13;;;;;;;9.75;5.20;;;24.60;99.90;;;;;;4848008;29;20114;-91
2023/08/24 12:03:40;;;;;;;8.35;4.57;;;24.70;99.90;;;;;;4848180;29;20110;-92
2023/08/24 12:06:12;;;;;;;9.13;5.40;;;24.70;99.90;;;;;;4848423;29;20054;-91
2023/08/24 12:08:45;;;;;;;8.70;5.50;;;24.90;99.90;;;;;;4847944;29;20436;-91
2023/08/24 12:11:20;;;;;;;10.07;4.85;;;25.00;99.90;;;;;;4847786;29;20061;-92
2023/08/24 12:13:51;;;;;;;;;;;25.00;99.90;;;;;;4847702;29;20038;-92
2023/08/24 12:16:19;;;;;;;9.48;4.80;;;25.10;99.90;;;;;;4847567;29;19921;-93
2023/08/24 12:18:52;;;;;;;9.00;4.40;;;25.10;99.90;;;;;;4847539;29;20042;-92
2023/08/24 12:21:19;;;;;;;8.35;4.40;;;25.10;99.90;;;;;;4848011;29;20046;-92
2023/08/24 12:24:05;;;;;;;7.80;4.40;;;25.00;99.90;;;;;;4847442;29;20152;-90
2023/08/24 12:26:33;;;;;;;8.30;4.80;;;25.00;99.90;;;;;;4847749;29;20046;-92
2023/08/24 12:29:05;;;;;;;6.75;4.10;;;24.90;99.90;;;;;;4832619;29;20054;-92
2023/08/24 12:31:32;;;;;;;9.68;4.65;;;24.90;99.90;;;;;;4847458;29;20049;-91
2023/08/24 12:34:08;;;;;;;7.50;4.22;;;24.90;99.90;;;;;;4832311;29;20038;-92
2023/08/24 12:36:39;;;;;;;8.13;4.30;;;24.70;99.90;;;;;;4847643;29;20053;-91
2023/08/24 12:39:07;;;;;;;7.85;4.53;;;24.70;99.90;;;;;;4846396;29;20503;-92
2023/08/24 12:41:34;;;;;;;8.05;4.93;;;24.60;99.90;;;;;;4847463;29;20041;-91
2023/08/24 12:44:04;;;;;;;8.98;4.78;;;24.60;99.90;;;;;;4832221;29;20098;-92
2023/08/24 12:46:35;;;;;;;9.15;5.20;;;24.60;99.90;;;;;;4846808;29;20886;-92
2023/08/24 12:49:02;;;;;;;7.47;4.53;;;24.60;99.90;;;;;;4832311;29;20050;-92
2023/08/24 12:51:29;;;;;;;8.60;4.70;;;24.60;99.90;;;;;;4846490;29;20042;-91
2023/08/24 12:53:56;;;;;;;14.13;4.90;;;24.60;99.90;;;;;;4846050;29;20568;-92
2023/08/24 12:56:23;;;;;;;7.45;4.80;;;24.60;99.90;;;;;;4844130;29;20069;-92
2023/08/24 12:58:50;;;;;;;9.63;5.38;;;24.60;99.90;;;;;;4842938;29;20114;-89
2023/08/24 13:01:16;;;;;;;8.30;5.20;;;24.70;99.90;;;;;;4846661;29;20486;-92
2023/08/24 13:03:43;;;;;;;8.70;4.30;;;24.60;99.90;;;;;;4831691;29;20081;-92
2023/08/24 13:06:10;;;;;;;8.77;4.30;;;24.60;99.90;;;;;;4831433;29;20567;-92
2023/08/24 13:08:37;;;;;;;9.85;4.65;;;24.60;99.90;;;;;;4831913;29;20089;-90
2023/08/24 13:11:04;;;;;;;12.10;4.43;;;24.60;99.90;;;;;;4858300;29;20559;-87
2023/08/24 13:13:30;;;;;;;10.00;3.92;;;24.60;99.90;;;;;;4846177;29;20132;-86
2023/08/24 13:15:57;;;;;;;6.85;4.15;;;24.60;99.90;;;;;;4830338;29;20038;-88
2023/08/24 13:18:24;;;;;;;15.90;4.50;;;24.50;99.90;;;;;;4845405;29;20054;-87
2023/08/24 13:20:50;;;;;;;10.65;4.38;;;24.50;99.90;;;;;;4830827;29;20053;-87
2023/08/24 13:23:17;;;;;;;7.18;3.80;;;24.50;99.90;;;;;;4859700;29;20053;-83
2023/08/24 13:25:44;;;;;;;7.53;3.58;;;24.50;99.90;;;;;;4829758;29;20052;-83
2023/08/24 13:28:10;;;;;;;7.95;4.13;;;24.60;99.90;;;;;;4829329;29;20508;-83
2023/08/24 13:30:37;;;;;;;10.85;4.93;;;24.50;99.90;;;;;;4829617;29;20053;-83
2023/08/24 13:33:04;;;;;;;8.63;4.57;;;24.50;99.90;;;;;;4829881;29;20377;-85
2023/08/24 13:35:31;;;;;;;7.47;4.47;;;24.50;99.90;;;;;;4829717;29;20077;-79
2023/08/24 13:37:57;;;;;;;7.43;3.70;;;24.50;99.90;;;;;;4858646;29;20132;-87
2023/08/24 13:40:24;;;;;;;11.10;4.85;;;24.50;99.90;;;;;;4842102;29;20050;-89
2023/08/24 13:42:51;;;;;;;9.77;4.43;;;24.50;99.90;;;;;;4842302;29;20488;-88
2023/08/24 13:45:18;;;;;;;8.85;4.93;;;24.40;99.90;;;;;;4841775;29;20119;-89
2023/08/24 13:47:48;;;;;;;8.80;4.70;;;24.40;99.90;;;;;;4857213;29;20050;-89
2023/08/24 13:50:15;;;;;;;7.57;4.70;;;24.30;99.90;;;;;;4842426;29;20096;-90